Time;durP1;ratioP1;P1;durP2;ratioP2;P2;SDS_P1;SDS_P2;PMS_P1;PMS_P2;Temp;Humidity;BMP_temperature;BMP_pressure;BME280_temperature;BME280_humidity;BME280_pressure;Samples;Min_cycle;Max_cycle;Signal;HPM_P1;HPM_P2
2023/04/05 00:00:09;;;;;;;12.15;10.85;;;22.10;70.60;;;;;;6182059;28;89497;-72
2023/04/05 00:03:11;;;;;;;12.65;11.07;;;22.10;70.60;;;;;;6189214;28;89152;-73
2023/04/05 00:06:15;;;;;;;11.18;9.98;;;22.10;70.50;;;;;;6206104;28;89083;-73
2023/04/05 00:09:19;;;;;;;13.32;11.77;;;22.10;70.50;;;;;;6211418;28;89104;-73
2023/04/05 00:12:21;;;;;;;12.00;10.70;;;22.20;70.50;;;;;;6200892;28;89168;-73
2023/04/05 00:15:23;;;;;;;11.48;10.27;;;22.20;70.50;;;;;;6186783;28;89181;-73
2023/04/05 00:18:26;;;;;;;12.25;10.68;;;22.10;70.40;;;;;;6194155;28;88308;-74
2023/04/05 00:21:29;;;;;;;12.75;10.45;;;22.10;70.40;;;;;;6198384;28;89113;-73
2023/04/05 00:24:32;;;;;;;11.25;10.02;;;22.10;70.40;;;;;;6200964;28;91544;-72
2023/04/05 00:27:34;;;;;;;11.60;10.38;;;22.10;70.40;;;;;;6194703;28;90283;-74
2023/04/05 00:30:36;;;;;;;11.32;10.13;;;22.10;70.40;;;;;;6190224;28;89457;-72
2023/04/05 00:33:38;;;;;;;11.43;10.10;;;22.00;70.30;;;;;;6199497;28;89109;-74
2023/04/05 00:36:41;;;;;;;11.35;10.13;;;22.00;70.30;;;;;;6198106;28;88316;-73
2023/04/05 00:39:44;;;;;;;11.50;10.25;;;22.10;70.30;;;;;;6201234;28;89131;-72
2023/04/05 00:42:45;;;;;;;11.80;10.18;;;22.10;70.30;;;;;;6201924;28;90142;-71
2023/04/05 00:45:48;;;;;;;11.40;9.95;;;22.10;70.30;;;;;;6204405;28;89029;-73
2023/04/05 00:48:50;;;;;;;11.15;9.95;;;22.00;70.10;;;;;;6199803;28;88443;-73
2023/04/05 00:51:53;;;;;;;11.32;10.13;;;22.10;70.20;;;;;;6188462;28;89109;-73
2023/04/05 00:54:56;;;;;;;10.68;9.40;;;22.10;70.20;;;;;;6190288;28;89053;-73
2023/04/05 00:57:58;;;;;;;11.65;9.50;;;22.00;70.10;;;;;;6197815;28;89158;-72
2023/04/05 01:01:06;;;;;;;10.25;8.95;;;22.00;70.10;;;;;;6206511;28;88945;-73
2023/04/05 01:04:12;;;;;;;10.48;9.32;;;22.00;70.10;;;;;;6197430;28;89431;-73
2023/04/05 01:07:24;;;;;;;11.65;9.88;;;22.00;70.10;;;;;;6193983;28;89072;-73
2023/04/05 01:10:37;;;;;;;10.32;9.18;;;22.00;70.00;;;;;;6193101;28;89415;-73
2023/04/05 01:13:39;;;;;;;10.10;9.10;;;22.00;70.00;;;;;;6185207;28;89116;-72
2023/04/05 01:16:41;;;;;;;11.40;9.55;;;22.00;70.00;;;;;;6204235;28;89369;-73
2023/04/05 01:19:46;;;;;;;9.45;8.45;;;22.00;70.00;;;;;;6191554;28;88230;-73
2023/04/05 01:23:25;;;;;;;10.40;9.30;;;22.00;69.90;;;;;;6182206;28;88042;-72
2023/04/05 01:27:01;;;;;;;11.25;9.23;;;22.00;69.80;;;;;;6188731;28;88997;-73
2023/04/05 01:30:12;;;;;;;9.57;8.57;;;22.00;69.80;;;;;;6170517;28;89015;-72
2023/04/05 01:33:21;;;;;;;10.25;8.90;;;22.00;69.80;;;;;;6201045;28;89131;-74
2023/04/05 01:36:31;;;;;;;10.15;9.05;;;21.90;69.70;;;;;;6198528;28;89063;-73
2023/04/05 01:39:35;;;;;;;10.32;8.95;;;21.90;69.80;;;;;;6184054;28;89269;-72
2023/04/05 01:42:37;;;;;;;9.75;8.68;;;21.90;69.70;;;;;;6193399;28;89097;-74
2023/04/05 01:45:41;;;;;;;9.40;8.50;;;21.90;69.60;;;;;;6194153;28;88113;-73
2023/04/05 01:48:43;;;;;;;9.88;8.88;;;21.90;69.70;;;;;;6200586;28;91533;-74
2023/04/05 01:51:45;;;;;;;10.15;9.05;;;21.90;69.70;;;;;;6199322;28;88667;-74
2023/04/05 01:54:47;;;;;;;9.93;8.93;;;21.90;69.60;;;;;;6204830;28;89213;-73
2023/04/05 01:57:49;;;;;;;10.38;9.15;;;21.90;69.50;;;;;;6201909;28;87955;-74
2023/04/05 02:00:55;;;;;;;10.98;9.85;;;21.90;69.40;;;;;;6199473;28;88915;-73
2023/04/05 02:03:57;;;;;;;10.13;9.13;;;21.90;69.40;;;;;;6199297;28;89238;-74
2023/04/05 02:06:59;;;;;;;11.05;9.65;;;21.90;69.50;;;;;;6195034;28;89197;-73
2023/04/05 02:10:01;;;;;;;10.60;9.48;;;21.90;69.40;;;;;;6200277;28;89474;-73
2023/04/05 02:13:03;;;;;;;10.65;9.55;;;21.90;69.40;;;;;;6206631;28;88979;-74
2023/04/05 02:16:07;;;;;;;10.73;9.63;;;21.90;69.40;;;;;;6196982;28;89154;-73
2023/04/05 02:19:09;;;;;;;10.75;9.65;;;21.90;69.40;;;;;;6202205;28;87963;-74
2023/04/05 02:22:11;;;;;;;10.43;9.32;;;21.80;69.40;;;;;;6201964;28;88346;-73
2023/04/05 02:25:13;;;;;;;10.70;9.60;;;21.80;69.30;;;;;;6200124;28;89081;-73
2023/04/05 02:28:15;;;;;;;11.30;10.15;;;21.80;69.30;;;;;;6208560;28;89052;-74
2023/04/05 02:31:19;;;;;;;12.77;10.63;;;21.90;69.30;;;;;;6203588;28;90643;-73
2023/04/05 02:34:22;;;;;;;11.20;10.07;;;21.90;69.20;;;;;;6208701;28;89045;-74
2023/04/05 02:37:25;;;;;;;10.68;9.57;;;21.80;69.10;;;;;;6196657;28;89380;-74
2023/04/05 02:40:28;;;;;;;11.25;10.05;;;21.90;69.10;;;;;;6202110;28;89096;-73
2023/04/05 02:43:30;;;;;;;10.93;9.82;;;21.80;69.10;;;;;;6206621;28;89274;-74
2023/04/05 02:46:33;;;;;;;11.50;10.30;;;21.80;69.10;;;;;;6199094;28;89044;-73
2023/04/05 02:49:35;;;;;;;10.90;9.60;;;21.80;69.10;;;;;;6203450;28;89389;-74
2023/04/05 02:52:37;;;;;;;10.88;9.85;;;21.80;69.10;;;;;;6202346;28;88292;-74
2023/04/05 02:55:41;;;;;;;11.13;9.93;;;21.80;69.10;;;;;;6201108;28;88625;-73
2023/04/05 02:58:43;;;;;;;10.70;9.60;;;21.80;69.10;;;;;;6197598;28;89357;-73
2023/04/05 03:01:46;;;;;;;11.57;10.38;;;21.70;69.00;;;;;;6190291;28;90279;-73
2023/04/05 03:04:48;;;;;;;10.82;9.73;;;21.80;69.00;;;;;;6196060;28;89059;-73
2023/04/05 03:07:51;;;;;;;12.02;10.30;;;21.80;69.00;;;;;;6194494;28;89115;-74
2023/04/05 03:10:54;;;;;;;10.93;9.73;;;21.80;68.80;;;;;;6194786;28;89160;-74
2023/04/05 03:13:56;;;;;;;11.80;10.43;;;21.80;68.80;;;;;;6202434;28;88497;-73
2023/04/05 03:17:00;;;;;;;10.43;9.32;;;21.80;68.80;;;;;;6204355;28;89058;-73
2023/04/05 03:20:07;;;;;;;11.05;9.77;;;21.80;68.80;;;;;;6194684;28;89033;-74
2023/04/05 03:23:09;;;;;;;11.57;9.77;;;21.80;68.80;;;;;;6192340;28;88320;-73
2023/04/05 03:26:13;;;;;;;10.90;9.77;;;21.70;68.80;;;;;;6199115;28;89059;-72
2023/04/05 03:29:15;;;;;;;10.30;9.20;;;21.70;68.80;;;;;;6207150;28;89100;-71
2023/04/05 03:32:18;;;;;;;10.07;9.00;;;21.70;68.80;;;;;;6196134;28;90169;-73
2023/04/05 03:35:21;;;;;;;10.02;9.02;;;21.70;68.80;;;;;;6195696;28;89938;-73
2023/04/05 03:38:22;;;;;;;9.90;8.90;;;21.70;68.70;;;;;;6181677;28;88970;-72
2023/04/05 03:41:24;;;;;;;10.43;9.32;;;21.70;68.70;;;;;;6199659;28;88152;-73
2023/04/05 03:44:26;;;;;;;10.88;9.75;;;21.70;68.60;;;;;;6192366;28;88298;-71
2023/04/05 03:47:30;;;;;;;10.30;9.20;;;21.70;68.50;;;;;;6195808;28;89112;-72
2023/04/05 03:50:32;;;;;;;10.30;9.00;;;21.70;68.50;;;;;;6196275;28;89138;-72
2023/04/05 03:53:34;;;;;;;10.07;9.07;;;21.70;68.60;;;;;;6183462;28;87259;-72
2023/04/05 03:56:36;;;;;;;10.70;9.52;;;21.70;68.50;;;;;;6202951;28;88856;-72
2023/04/05 03:59:38;;;;;;;10.75;9.13;;;21.80;68.50;;;;;;6207143;28;89040;-72
2023/04/05 04:02:43;;;;;;;9.38;8.38;;;21.70;68.40;;;;;;6206369;28;90012;-72
2023/04/05 04:05:45;;;;;;;9.45;8.52;;;21.80;68.40;;;;;;6194609;28;89112;-73
2023/04/05 04:08:47;;;;;;;9.20;8.20;;;21.80;68.30;;;;;;6206427;28;87988;-72
2023/04/05 04:11:49;;;;;;;9.02;8.13;;;21.80;68.30;;;;;;6206364;28;87969;-72
2023/04/05 04:14:51;;;;;;;9.15;8.25;;;21.80;68.20;;;;;;6204965;28;89112;-72
2023/04/05 04:17:55;;;;;;;9.18;8.27;;;21.80;68.10;;;;;;6212469;28;89175;-72
2023/04/05 04:20:57;;;;;;;8.82;7.93;;;21.90;68.10;;;;;;6190294;28;89142;-73
2023/04/05 04:23:59;;;;;;;11.07;9.20;;;21.90;68.00;;;;;;6207788;28;88356;-72
2023/04/05 04:27:01;;;;;;;8.88;7.97;;;21.90;68.00;;;;;;6193563;28;87817;-73
2023/04/05 04:30:04;;;;;;;8.25;7.45;;;21.90;67.90;;;;;;6198747;28;89405;-73
2023/04/05 04:33:07;;;;;;;8.70;7.80;;;21.90;67.90;;;;;;6203438;28;90023;-73
2023/04/05 04:36:12;;;;;;;8.98;8.07;;;21.90;67.80;;;;;;6183517;28;88986;-73
2023/04/05 04:39:14;;;;;;;8.50;7.57;;;21.90;67.80;;;;;;6206749;28;89274;-72
2023/04/05 04:42:18;;;;;;;8.35;7.55;;;21.90;67.80;;;;;;6207426;28;89128;-73
2023/04/05 04:45:20;;;;;;;8.90;8.00;;;21.90;67.70;;;;;;6205247;28;87904;-73
2023/04/05 04:48:24;;;;;;;8.52;7.63;;;21.90;67.70;;;;;;6206357;28;89001;-73
2023/04/05 04:51:26;;;;;;;8.15;7.35;;;21.90;67.80;;;;;;6204076;28;89162;-74
2023/04/05 04:54:28;;;;;;;8.30;7.43;;;21.80;67.70;;;;;;6200717;28;87224;-74
2023/04/05 04:57:30;;;;;;;8.25;7.45;;;21.90;67.70;;;;;;6205328;28;89373;-73
2023/04/05 05:00:32;;;;;;;8.25;7.40;;;21.90;67.70;;;;;;6205858;28;89047;-72
2023/04/05 05:03:37;;;;;;;7.57;6.88;;;21.90;67.70;;;;;;6199754;28;90125;-72
2023/04/05 05:06:39;;;;;;;7.82;7.03;;;21.80;67.70;;;;;;6198597;28;89069;-72
2023/04/05 05:09:41;;;;;;;7.28;6.57;;;21.80;67.70;;;;;;6184715;28;89103;-71
2023/04/05 05:12:43;;;;;;;7.80;6.57;;;21.80;67.70;;;;;;6189984;28;89531;-73
2023/04/05 05:15:45;;;;;;;8.68;7.07;;;21.90;67.80;;;;;;6204723;28;89240;-72
2023/04/05 05:18:50;;;;;;;7.55;6.70;;;21.80;67.70;;;;;;6204871;28;89322;-72
2023/04/05 05:21:53;;;;;;;7.90;7.00;;;21.80;67.80;;;;;;6196656;28;88924;-73
2023/04/05 05:24:55;;;;;;;9.57;7.68;;;21.80;67.70;;;;;;6194774;28;88349;-72
2023/04/05 05:27:57;;;;;;;7.60;6.80;;;21.80;67.70;;;;;;6200270;28;89136;-72
2023/04/05 05:30:59;;;;;;;8.40;6.60;;;21.80;67.70;;;;;;6201028;28;89400;-73
2023/04/05 05:34:03;;;;;;;8.32;7.03;;;21.80;67.70;;;;;;6188202;28;90784;-73
2023/04/05 05:37:05;;;;;;;7.72;6.47;;;21.80;67.70;;;;;;6184792;28;89041;-72
2023/04/05 05:40:08;;;;;;;7.63;6.13;;;21.80;67.70;;;;;;6200649;28;88879;-71
2023/04/05 05:43:10;;;;;;;8.50;6.25;;;21.90;67.70;;;;;;6191923;28;89121;-72
2023/04/05 05:46:12;;;;;;;8.27;6.72;;;21.90;67.70;;;;;;6192243;28;88955;-73
2023/04/05 05:49:16;;;;;;;7.65;6.60;;;21.90;68.50;;;;;;6191573;28;89046;-73
2023/04/05 05:52:18;;;;;;;8.45;6.10;;;21.90;67.60;;;;;;6204629;28;89102;-73
2023/04/05 05:55:21;;;;;;;7.07;6.38;;;21.90;67.50;;;;;;6204983;28;88395;-72
2023/04/05 05:58:23;;;;;;;6.68;6.03;;;21.90;67.40;;;;;;6182614;28;89071;-73
2023/04/05 06:01:28;;;;;;;6.78;6.03;;;21.90;67.40;;;;;;6200312;28;89030;-73
2023/04/05 06:04:33;;;;;;;7.28;6.35;;;22.00;67.30;;;;;;6190387;28;90296;-73
2023/04/05 06:07:36;;;;;;;7.35;6.32;;;22.00;67.20;;;;;;6205996;28;88913;-73
2023/04/05 06:10:38;;;;;;;6.97;6.22;;;22.00;67.20;;;;;;6202029;28;89310;-73
2023/04/05 06:13:40;;;;;;;6.78;6.07;;;22.10;67.10;;;;;;6197674;28;89153;-72
2023/04/05 06:16:42;;;;;;;6.68;6.00;;;22.00;67.00;;;;;;6204304;28;88971;-72
2023/04/05 06:19:46;;;;;;;7.55;6.40;;;22.10;67.00;;;;;;6202902;28;87901;-73
2023/04/05 06:22:47;;;;;;;6.53;5.93;;;22.10;66.90;;;;;;6201176;28;89085;-72
2023/04/05 06:25:50;;;;;;;7.68;6.28;;;22.10;66.90;;;;;;6203691;28;87985;-73
2023/04/05 06:28:52;;;;;;;7.18;5.82;;;22.10;66.70;;;;;;6204948;28;89184;-73
2023/04/05 06:31:55;;;;;;;8.75;6.25;;;22.10;66.70;;;;;;6190590;28;89060;-73
2023/04/05 06:34:58;;;;;;;6.93;6.00;;;22.10;66.70;;;;;;6183556;28;90076;-73
2023/04/05 06:38:00;;;;;;;6.43;5.65;;;22.10;66.70;;;;;;6191448;28;87964;-71
2023/04/05 06:41:03;;;;;;;6.75;5.60;;;22.20;66.70;;;;;;6208834;28;88987;-73
2023/04/05 06:44:05;;;;;;;7.72;5.40;;;22.20;66.70;;;;;;6209491;28;89542;-73
2023/04/05 06:47:07;;;;;;;6.93;5.65;;;22.20;66.60;;;;;;6208196;28;89348;-72
2023/04/05 06:50:10;;;;;;;6.28;5.68;;;22.20;66.60;;;;;;6198272;28;89412;-73
2023/04/05 06:53:17;;;;;;;6.75;5.75;;;22.20;66.60;;;;;;6197922;28;89424;-71
2023/04/05 06:56:18;;;;;;;6.75;5.60;;;22.20;66.50;;;;;;6208094;28;88316;-73
2023/04/05 06:59:20;;;;;;;6.60;5.38;;;22.30;66.50;;;;;;6207260;28;89094;-72
2023/04/05 07:02:22;;;;;;;6.80;5.90;;;22.20;66.40;;;;;;6192144;28;89490;-72
2023/04/05 07:05:26;;;;;;;7.13;5.55;;;22.30;66.40;;;;;;6196264;28;89942;-74
2023/04/05 07:08:29;;;;;;;6.10;5.28;;;22.30;66.40;;;;;;6196368;28;88918;-72
2023/04/05 07:11:31;;;;;;;5.80;5.18;;;22.30;66.40;;;;;;6197963;28;89176;-73
2023/04/05 07:14:35;;;;;;;7.35;5.50;;;22.30;66.40;;;;;;6207415;28;89006;-72
2023/04/05 07:17:37;;;;;;;5.97;5.13;;;22.40;66.40;;;;;;6207830;28;89007;-71
2023/04/05 07:20:41;;;;;;;6.07;5.40;;;22.30;66.30;;;;;;6188046;28;89045;-73
2023/04/05 07:23:43;;;;;;;5.75;5.20;;;22.30;66.30;;;;;;6202671;28;88112;-72
2023/04/05 07:26:45;;;;;;;6.88;5.13;;;22.30;66.20;;;;;;6200275;28;88344;-73
2023/04/05 07:29:47;;;;;;;5.90;5.18;;;22.30;66.20;;;;;;6192730;28;89439;-72
2023/04/05 07:32:49;;;;;;;6.45;5.20;;;22.40;66.20;;;;;;6199888;28;89426;-72
2023/04/05 07:35:54;;;;;;;6.30;4.97;;;22.40;66.20;;;;;;6215010;28;89896;-73
2023/04/05 07:38:56;;;;;;;5.38;4.70;;;22.40;66.20;;;;;;6194206;28;89432;-73
2023/04/05 07:41:58;;;;;;;6.30;5.13;;;22.40;66.20;;;;;;6206411;28;89259;-73
2023/04/05 07:45:00;;;;;;;5.90;4.75;;;22.40;66.20;;;;;;6207724;28;87933;-73
2023/04/05 07:48:02;;;;;;;5.90;4.72;;;22.40;66.20;;;;;;6207588;28;87980;-73
2023/04/05 07:51:07;;;;;;;7.32;4.80;;;22.40;66.20;;;;;;6205945;28;89069;-73
2023/04/05 07:54:09;;;;;;;6.93;5.00;;;22.40;66.20;;;;;;6206149;28;88807;-73
2023/04/05 07:57:16;;;;;;;4.80;4.30;;;22.50;66.40;;;;;;6200381;28;88660;-74
2023/04/05 08:00:18;;;;;;;6.35;5.00;;;22.40;66.20;;;;;;6192473;28;89424;-73
2023/04/05 08:03:20;;;;;;;5.28;4.65;;;22.50;66.30;;;;;;6196140;28;89211;-74
2023/04/05 08:06:25;;;;;;;6.90;4.78;;;22.50;66.40;;;;;;6197635;28;90011;-74
2023/04/05 08:09:27;;;;;;;5.25;4.65;;;22.50;66.30;;;;;;6201788;28;89074;-74
2023/04/05 08:12:30;;;;;;;5.57;4.68;;;22.50;66.30;;;;;;6198792;28;89082;-74
2023/04/05 08:15:33;;;;;;;5.20;4.45;;;22.50;66.40;;;;;;6202500;28;89064;-72
2023/04/05 08:18:35;;;;;;;5.15;4.32;;;22.50;66.30;;;;;;6195633;28;89141;-73
2023/04/05 08:21:39;;;;;;;5.57;4.43;;;22.50;66.30;;;;;;6196019;28;88110;-74
2023/04/05 08:24:40;;;;;;;5.40;4.30;;;22.50;66.30;;;;;;6195711;28;89404;-73
2023/04/05 08:27:42;;;;;;;5.38;4.15;;;22.50;66.30;;;;;;6197549;28;87496;-73
2023/04/05 08:30:45;;;;;;;4.82;4.22;;;22.50;66.30;;;;;;6205257;28;88011;-72
2023/04/05 08:33:47;;;;;;;5.65;4.25;;;22.50;66.20;;;;;;6205343;28;89048;-72
2023/04/05 08:36:50;;;;;;;4.90;4.07;;;22.50;66.20;;;;;;6200776;28;90593;-73
2023/04/05 08:39:52;;;;;;;4.72;4.22;;;22.50;66.30;;;;;;6194840;28;89031;-73
2023/04/05 08:43:03;;;;;;;4.60;4.00;;;22.50;66.20;;;;;;6192975;28;89038;-73
2023/04/05 08:46:09;;;;;;;4.78;4.07;;;22.50;66.20;;;;;;6192731;28;88935;-73
2023/04/05 08:49:11;;;;;;;4.40;4.00;;;22.50;66.20;;;;;;6201802;28;87948;-73
2023/04/05 08:52:15;;;;;;;5.50;4.18;;;22.60;66.30;;;;;;6205212;28;88924;-73
2023/04/05 08:55:17;;;;;;;4.82;3.63;;;22.60;66.20;;;;;;6209280;28;89383;-73
2023/04/05 08:58:22;;;;;;;5.05;4.03;;;22.60;66.30;;;;;;6198347;28;88444;-74
2023/04/05 09:01:26;;;;;;;4.18;3.78;;;22.60;66.20;;;;;;6198872;28;89128;-71
2023/04/05 09:04:31;;;;;;;4.70;3.78;;;22.60;66.20;;;;;;6184383;28;88976;-72
2023/04/05 09:07:36;;;;;;;4.78;3.80;;;22.60;66.20;;;;;;6205333;28;90104;-72
2023/04/05 09:10:38;;;;;;;4.55;3.85;;;22.60;66.20;;;;;;6196471;28;89057;-73
2023/04/05 09:13:40;;;;;;;4.57;3.90;;;22.60;66.30;;;;;;6205055;28;89428;-73
2023/04/05 09:16:43;;;;;;;4.55;3.78;;;22.60;66.30;;;;;;6192420;28;87972;-73
2023/04/05 09:19:48;;;;;;;4.38;3.80;;;22.60;66.20;;;;;;6194047;28;88104;-74
2023/04/05 09:22:52;;;;;;;4.72;3.70;;;22.60;66.20;;;;;;6199058;28;89272;-74
2023/04/05 09:25:54;;;;;;;4.45;3.42;;;22.60;66.20;;;;;;6207935;28;87991;-73
2023/04/05 09:28:56;;;;;;;4.32;3.83;;;22.60;66.20;;;;;;6193371;28;88361;-73
2023/04/05 09:31:58;;;;;;;4.25;3.60;;;22.60;66.20;;;;;;6202356;28;89128;-73
2023/04/05 09:35:02;;;;;;;3.90;3.45;;;22.60;66.20;;;;;;6199110;28;89174;-73
2023/04/05 09:38:06;;;;;;;3.75;3.33;;;22.60;66.20;;;;;;6180850;28;90156;-71
2023/04/05 09:41:09;;;;;;;4.07;3.08;;;22.60;66.20;;;;;;6196405;28;89262;-73
2023/04/05 09:44:11;;;;;;;4.28;3.80;;;22.60;66.20;;;;;;6205477;28;89442;-74
2023/04/05 09:47:16;;;;;;;3.33;3.00;;;22.60;66.20;;;;;;6192580;28;89159;-73
2023/04/05 09:50:19;;;;;;;3.88;3.20;;;22.60;66.20;;;;;;6181602;28;87674;-74
2023/04/05 09:53:23;;;;;;;3.63;3.10;;;22.60;66.20;;;;;;6204291;28;89123;-74
2023/04/05 09:56:25;;;;;;;4.00;3.60;;;22.70;66.20;;;;;;6192340;28;89054;-73
2023/04/05 09:59:27;;;;;;;3.50;3.20;;;22.60;66.20;;;;;;6198051;28;88997;-73
2023/04/05 10:02:36;;;;;;;3.40;3.10;;;22.60;66.20;;;;;;6205450;28;88298;-72
2023/04/05 10:05:39;;;;;;;3.10;2.80;;;22.60;66.20;;;;;;6193390;28;89005;-73
2023/04/05 10:08:42;;;;;;;3.90;3.10;;;22.70;66.20;;;;;;6192962;28;90064;-73
2023/04/05 10:11:45;;;;;;;4.03;2.95;;;22.70;66.20;;;;;;6181243;28;89360;-73
2023/04/05 10:14:47;;;;;;;3.42;3.13;;;22.70;66.20;;;;;;6184782;28;89132;-71
2023/04/05 10:17:55;;;;;;;3.03;2.70;;;22.70;66.20;;;;;;6208570;28;90138;-72
2023/04/05 10:21:00;;;;;;;4.13;3.05;;;22.70;66.20;;;;;;6197071;28;89288;-74
2023/04/05 10:24:10;;;;;;;4.03;2.85;;;22.70;66.20;;;;;;6210643;28;91083;-73
2023/04/05 10:27:21;;;;;;;3.30;3.00;;;22.70;66.20;;;;;;6195548;28;87973;-74
2023/04/05 10:30:25;;;;;;;3.15;2.85;;;22.70;66.20;;;;;;6191454;28;89492;-73
2023/04/05 10:33:34;;;;;;;3.15;2.85;;;22.70;66.20;;;;;;6202738;28;89027;-74
2023/04/05 10:36:48;;;;;;;3.30;2.80;;;22.70;66.20;;;;;;6195664;28;89799;-73
2023/04/05 10:39:52;;;;;;;2.95;2.58;;;22.70;66.20;;;;;;6208062;28;90015;-71
2023/04/05 10:42:55;;;;;;;3.45;2.92;;;22.70;66.20;;;;;;6192356;28;89374;-73
2023/04/05 10:45:59;;;;;;;3.03;2.72;;;22.70;66.20;;;;;;6196947;28;89410;-73
2023/04/05 10:49:11;;;;;;;3.00;2.70;;;22.70;66.20;;;;;;6186580;28;89426;-73
2023/04/05 10:52:15;;;;;;;3.75;3.03;;;22.70;66.20;;;;;;6205283;28;87948;-73
2023/04/05 10:55:19;;;;;;;3.08;2.70;;;22.70;66.20;;;;;;6196828;28;89060;-73
2023/04/05 10:58:22;;;;;;;2.75;2.45;;;22.70;66.20;;;;;;6196900;28;88906;-73
2023/04/05 11:01:25;;;;;;;2.60;2.40;;;22.70;66.20;;;;;;6199432;28;88317;-72
2023/04/05 11:04:27;;;;;;;3.65;2.90;;;22.70;66.20;;;;;;6198810;28;89129;-73
2023/04/05 11:07:43;;;;;;;2.95;2.65;;;22.70;66.20;;;;;;6194123;28;89424;-74
2023/04/05 11:10:53;;;;;;;3.47;2.97;;;22.70;66.20;;;;;;6211393;28;89651;-73
2023/04/05 11:13:56;;;;;;;3.30;2.58;;;22.70;66.30;;;;;;6200956;28;89000;-73
2023/04/05 11:16:58;;;;;;;2.65;2.40;;;22.70;66.20;;;;;;6205086;28;88514;-74
2023/04/05 11:20:04;;;;;;;4.20;3.00;;;22.70;66.20;;;;;;6197678;28;89052;-74
2023/04/05 11:23:06;;;;;;;2.40;2.10;;;22.70;66.10;;;;;;6195333;28;90226;-73
2023/04/05 11:26:09;;;;;;;2.35;2.15;;;22.70;66.10;;;;;;6206064;28;88068;-73
2023/04/05 11:29:11;;;;;;;3.10;2.42;;;22.70;66.10;;;;;;6194215;28;89036;-71
2023/04/05 11:32:13;;;;;;;2.60;2.40;;;22.70;66.10;;;;;;6207899;28;88669;-73
2023/04/05 11:35:21;;;;;;;2.38;2.10;;;22.70;66.10;;;;;;6207605;28;89096;-73
2023/04/05 11:38:23;;;;;;;2.95;2.50;;;22.70;66.10;;;;;;6201190;28;87779;-72
2023/04/05 11:41:33;;;;;;;2.58;2.25;;;22.70;66.10;;;;;;6199147;28;90057;-74
2023/04/05 11:44:45;;;;;;;2.20;2.00;;;22.70;66.10;;;;;;6206167;28;89006;-73
2023/04/05 11:47:47;;;;;;;2.67;2.42;;;22.70;66.10;;;;;;6204703;28;89075;-74
2023/04/05 11:50:51;;;;;;;2.75;2.42;;;22.70;66.10;;;;;;6205663;28;89080;-73
2023/04/05 11:53:53;;;;;;;2.65;2.30;;;22.70;66.10;;;;;;6206088;28;89391;-72
2023/04/05 11:56:56;;;;;;;2.80;2.38;;;22.70;66.00;;;;;;6206940;28;89399;-73
2023/04/05 11:59:58;;;;;;;2.50;2.13;;;22.70;66.00;;;;;;6206022;28;89101;-73
2023/04/05 12:03:00;;;;;;;2.42;2.22;;;22.70;66.00;;;;;;6206296;28;88818;-73
2023/04/05 12:06:03;;;;;;;2.70;2.33;;;22.70;66.00;;;;;;6192068;28;89163;-73
2023/04/05 12:09:07;;;;;;;2.58;2.08;;;22.70;65.90;;;;;;6196547;28;89133;-72
2023/04/05 12:12:18;;;;;;;2.50;2.20;;;22.70;65.90;;;;;;6191596;28;90049;-72
2023/04/05 12:15:20;;;;;;;3.67;2.50;;;22.70;66.00;;;;;;6204419;28;89058;-72
2023/04/05 12:18:22;;;;;;;3.20;2.50;;;22.70;65.90;;;;;;6196861;28;88567;-73
2023/04/05 12:21:25;;;;;;;2.30;1.98;;;22.70;65.80;;;;;;6212802;28;88869;-73
2023/04/05 12:24:27;;;;;;;2.10;1.90;;;22.80;65.90;;;;;;6195166;28;90347;-73
2023/04/05 12:27:30;;;;;;;2.88;2.28;;;22.70;65.90;;;;;;6198497;28;89857;-72
2023/04/05 12:30:36;;;;;;;2.20;1.90;;;22.80;65.90;;;;;;6206746;28;88901;-73
2023/04/05 12:33:43;;;;;;;2.33;1.98;;;22.80;65.90;;;;;;6207187;28;87593;-73
2023/04/05 12:36:47;;;;;;;2.20;1.98;;;22.70;65.80;;;;;;6189970;28;89001;-72
2023/04/05 12:39:50;;;;;;;2.35;1.90;;;22.80;65.90;;;;;;6187654;28;89133;-72
2023/04/05 12:42:53;;;;;;;2.25;2.05;;;22.70;65.90;;;;;;6185022;28;90132;-73
2023/04/05 12:45:55;;;;;;;3.28;2.30;;;22.80;65.90;;;;;;6192680;28;89406;-73
2023/04/05 12:48:59;;;;;;;2.95;2.15;;;22.80;65.90;;;;;;6205518;28;88070;-73
2023/04/05 12:52:02;;;;;;;2.17;1.77;;;22.80;65.90;;;;;;6195549;28;89031;-73
2023/04/05 12:55:05;;;;;;;2.53;1.90;;;22.80;65.90;;;;;;6202804;28;91025;-73
2023/04/05 12:58:08;;;;;;;2.50;2.10;;;22.80;65.90;;;;;;6198168;28;87165;-73
2023/04/05 13:01:11;;;;;;;2.33;2.03;;;22.80;65.90;;;;;;6195661;28;89458;-72
2023/04/05 13:04:13;;;;;;;1.92;1.73;;;22.70;65.80;;;;;;6193215;28;89053;-73
2023/04/05 13:07:15;;;;;;;1.90;1.70;;;22.80;65.90;;;;;;6206365;28;88152;-72
2023/04/05 13:10:18;;;;;;;2.20;1.90;;;22.80;65.90;;;;;;6182685;28;89212;-73
2023/04/05 13:13:21;;;;;;;2.30;2.08;;;22.80;65.90;;;;;;6205717;28;90040;-72
2023/04/05 13:16:23;;;;;;;2.00;1.80;;;22.70;65.80;;;;;;6206233;28;92133;-72
2023/04/05 13:19:25;;;;;;;1.88;1.73;;;22.70;65.80;;;;;;6192250;28;89183;-73
2023/04/05 13:22:27;;;;;;;2.92;2.22;;;22.80;65.90;;;;;;6183307;28;89651;-72
2023/04/05 13:25:29;;;;;;;2.20;1.92;;;22.80;65.80;;;;;;6206346;28;89458;-74
2023/04/05 13:28:34;;;;;;;2.00;1.80;;;22.80;65.80;;;;;;6205046;28;89127;-73
2023/04/05 13:31:36;;;;;;;1.80;1.65;;;22.80;65.80;;;;;;6199752;28;89241;-73
2023/04/05 13:34:38;;;;;;;2.05;1.70;;;22.80;65.90;;;;;;6204502;28;88272;-74
2023/04/05 13:37:40;;;;;;;2.58;1.95;;;22.80;65.80;;;;;;6193053;28;89037;-72
2023/04/05 13:40:42;;;;;;;2.38;1.70;;;22.80;65.90;;;;;;6194374;28;89167;-74
2023/04/05 13:43:45;;;;;;;1.80;1.60;;;22.70;65.80;;;;;;6194679;28;89980;-73
2023/04/05 13:46:47;;;;;;;1.80;1.58;;;22.70;65.70;;;;;;6194256;28;89050;-73
2023/04/05 13:49:49;;;;;;;1.92;1.70;;;22.80;65.70;;;;;;6192492;28;89151;-73
2023/04/05 13:52:52;;;;;;;1.67;1.58;;;22.80;65.80;;;;;;6203113;28;89226;-73
2023/04/05 13:55:54;;;;;;;1.90;1.55;;;22.80;65.70;;;;;;6199202;28;89135;-73
2023/04/05 13:58:57;;;;;;;2.00;1.67;;;22.70;65.70;;;;;;6208951;28;89094;-73
2023/04/05 14:01:59;;;;;;;1.85;1.63;;;22.80;65.70;;;;;;6221778;28;89061;-73
2023/04/05 14:05:01;;;;;;;1.50;1.40;;;22.70;65.70;;;;;;6198136;28;88275;-73
2023/04/05 14:08:03;;;;;;;1.67;1.50;;;22.70;65.70;;;;;;6209752;28;89052;-73
2023/04/05 14:11:07;;;;;;;1.88;1.70;;;22.80;65.70;;;;;;6200309;28;89373;-74
2023/04/05 14:14:11;;;;;;;1.88;1.67;;;22.80;65.70;;;;;;6204769;28;90012;-73
2023/04/05 14:17:13;;;;;;;1.65;1.55;;;22.80;65.70;;;;;;6220886;28;89565;-74
2023/04/05 14:20:15;;;;;;;1.88;1.60;;;22.80;65.70;;;;;;6203481;28;89420;-74
2023/04/05 14:23:17;;;;;;;1.88;1.73;;;22.70;65.60;;;;;;6191216;28;89078;-71
2023/04/05 14:26:19;;;;;;;1.65;1.55;;;22.80;65.70;;;;;;6189437;28;88972;-75
2023/04/05 14:29:22;;;;;;;1.60;1.50;;;22.80;65.70;;;;;;6208046;28;89155;-73
2023/04/05 14:32:24;;;;;;;2.97;1.88;;;22.80;65.60;;;;;;6195549;28;89154;-74
2023/04/05 14:35:26;;;;;;;1.95;1.65;;;22.80;65.60;;;;;;6196282;28;88750;-74
2023/04/05 14:38:28;;;;;;;2.03;1.70;;;22.80;65.60;;;;;;6195700;28;89140;-72
2023/04/05 14:41:30;;;;;;;1.67;1.58;;;22.80;65.60;;;;;;6193975;28;87965;-74
2023/04/05 14:44:34;;;;;;;1.60;1.50;;;22.70;65.60;;;;;;6197926;28;89985;-73
2023/04/05 14:47:36;;;;;;;1.73;1.60;;;22.80;65.60;;;;;;6197110;28;89543;-73
2023/04/05 14:50:38;;;;;;;1.55;1.45;;;22.80;65.60;;;;;;6213926;28;89053;-73
2023/04/05 14:53:40;;;;;;;1.40;1.30;;;22.80;65.60;;;;;;6201990;28;89050;-73
2023/04/05 14:56:42;;;;;;;1.77;1.50;;;22.70;65.50;;;;;;6205082;28;87984;-74
2023/04/05 14:59:45;;;;;;;1.95;1.50;;;22.80;65.70;;;;;;6202990;28;89018;-73
2023/04/05 15:02:48;;;;;;;1.98;1.67;;;22.80;65.70;;;;;;6193997;28;89139;-73
2023/04/05 15:05:50;;;;;;;1.90;1.50;;;22.80;65.70;;;;;;6198190;28;88383;-73
2023/04/05 15:08:52;;;;;;;1.95;1.60;;;22.80;65.70;;;;;;6208726;28;89054;-73
2023/04/05 15:11:55;;;;;;;3.17;2.05;;;22.80;65.70;;;;;;6183055;28;89160;-74
2023/04/05 15:14:58;;;;;;;1.58;1.48;;;22.80;65.70;;;;;;6184226;28;89933;-73
2023/04/05 15:18:00;;;;;;;1.63;1.30;;;22.80;65.70;;;;;;6207484;28;89243;-74
2023/04/05 15:21:02;;;;;;;1.60;1.50;;;22.80;65.70;;;;;;6192657;28;89186;-72
2023/04/05 15:24:05;;;;;;;1.60;1.40;;;22.80;65.70;;;;;;6198308;28;89582;-72
2023/04/05 15:27:07;;;;;;;1.60;1.50;;;22.80;65.70;;;;;;6194970;28;87978;-73
2023/04/05 15:30:11;;;;;;;1.70;1.40;;;22.80;65.70;;;;;;6206571;28;89119;-72
2023/04/05 15:33:13;;;;;;;1.67;1.48;;;22.80;65.80;;;;;;6207242;28;89160;-73
2023/04/05 15:36:15;;;;;;;2.15;1.70;;;22.80;65.80;;;;;;6207283;28;88433;-72
2023/04/05 15:39:17;;;;;;;2.00;1.60;;;22.80;65.70;;;;;;6207704;28;89129;-72
2023/04/05 15:42:20;;;;;;;1.42;1.33;;;22.80;65.70;;;;;;6201724;28;89168;-73
2023/04/05 15:45:24;;;;;;;1.67;1.50;;;22.80;65.80;;;;;;6193283;28;90026;-72
2023/04/05 15:48:26;;;;;;;1.75;1.63;;;22.80;65.80;;;;;;6202526;28;89088;-73